createdAt,value
2019-04-16T00:00:24.377Z,1024.48
2019-04-16T00:01:33.272Z,1024.53
2019-04-16T00:02:48.458Z,1024.55
2019-04-16T00:03:59.946Z,1024.53
2019-04-16T00:05:09.090Z,1024.53
2019-04-16T00:06:18.818Z,1024.53
2019-04-16T00:07:27.704Z,1024.54
2019-04-16T00:08:37.690Z,1024.53
2019-04-16T00:09:46.831Z,1024.55
2019-04-16T00:10:56.246Z,1024.57
2019-04-16T00:12:05.442Z,1024.53
2019-04-16T00:13:14.326Z,1024.54
2019-04-16T00:14:23.206Z,1024.52
2019-04-16T00:15:32.617Z,1024.54
2019-04-16T00:16:46.310Z,1024.51
2019-04-16T00:17:55.531Z,1024.51
2019-04-16T00:19:06.485Z,1024.51
2019-04-16T00:20:15.778Z,1024.47
2019-04-16T00:21:24.931Z,1024.45
2019-04-16T00:22:33.802Z,1024.42
2019-04-16T00:23:42.729Z,1024.4
2019-04-16T00:24:53.877Z,1024.43
2019-04-16T00:26:03.359Z,1024.34
2019-04-16T00:27:12.237Z,1024.43
2019-04-16T00:28:21.376Z,1024.39
2019-04-16T00:29:35.193Z,1024.4
2019-04-16T00:30:46.541Z,1024.36
2019-04-16T00:31:55.419Z,1024.34
2019-04-16T00:33:10.632Z,1024.34
2019-04-16T00:34:20.572Z,1024.33
2019-04-16T00:35:29.467Z,1024.37
2019-04-16T00:36:38.675Z,1024.34
2019-04-16T00:37:52.310Z,1024.32
2019-04-16T00:39:02.424Z,1024.31
2019-04-16T00:40:11.304Z,1024.33
2019-04-16T00:41:23.853Z,1024.33
2019-04-16T00:42:33.036Z,1024.35
2019-04-16T00:43:44.077Z,1024.35
2019-04-16T00:44:53.434Z,1024.36
2019-04-16T00:46:02.877Z,1024.36
2019-04-16T00:47:17.858Z,1024.36
2019-04-16T00:48:27.017Z,1024.32
2019-04-16T00:49:37.827Z,1024.3
2019-04-16T00:50:46.855Z,1024.31
2019-04-16T00:51:56.163Z,1024.34
2019-04-16T00:53:10.701Z,1024.29
2019-04-16T00:54:19.574Z,1024.31
2019-04-16T00:55:28.727Z,1024.28
2019-04-16T00:56:37.602Z,1024.29
2019-04-16T00:57:50.918Z,1024.26
2019-04-16T00:59:00.268Z,1024.3
2019-04-16T01:00:09.133Z,1024.26
2019-04-16T01:01:18.016Z,1024.2
2019-04-16T01:02:27.425Z,1024.26
2019-04-16T01:03:36.313Z,1024.23
2019-04-16T01:04:45.187Z,1024.22
2019-04-16T01:05:54.336Z,1024.23
2019-04-16T01:07:07.406Z,1024.25
2019-04-16T01:08:29.768Z,1024.26
2019-04-16T01:09:38.935Z,1024.24
2019-04-16T01:10:47.864Z,1024.22
2019-04-16T01:11:57.014Z,1024.26
2019-04-16T01:13:06.767Z,1024.24
2019-04-16T01:14:16.098Z,1024.24
2019-04-16T01:15:29.157Z,1024.26
2019-04-16T01:16:40.850Z,1024.25
2019-04-16T01:17:50.263Z,1024.27
2019-04-16T01:18:59.678Z,1024.29
2019-04-16T01:20:13.068Z,1024.24
2019-04-16T01:21:22.345Z,1024.22
2019-04-16T01:22:32.030Z,1024.22
2019-04-16T01:23:40.903Z,1024.22
2019-04-16T01:24:53.246Z,1024.22
2019-04-16T01:26:02.661Z,1024.21
2019-04-16T01:27:11.812Z,1024.23
2019-04-16T01:28:20.951Z,1024.2
2019-04-16T01:29:34.644Z,1024.18
2019-04-16T01:30:43.613Z,1024.17
2019-04-16T01:31:52.761Z,1024.2
2019-04-16T01:33:01.632Z,1024.17
2019-04-16T01:34:15.227Z,1024.22
2019-04-16T01:35:26.850Z,1024.16
2019-04-16T01:36:35.996Z,1024.19
2019-04-16T01:37:44.879Z,1024.19
2019-04-16T01:39:08.439Z,1024.13
2019-04-16T01:40:25.343Z,1024.14
2019-04-16T01:41:34.489Z,1024.18
2019-04-16T01:42:43.375Z,1024.18
2019-04-16T01:43:57.273Z,1024.2
2019-04-16T01:45:07.048Z,1024.14
2019-04-16T01:46:15.944Z,1024.15
2019-04-16T01:47:25.086Z,1024.13
2019-04-16T01:48:39.564Z,1024.16
2019-04-16T01:49:48.874Z,1024.12
2019-04-16T01:50:57.753Z,1024.15
2019-04-16T01:52:06.639Z,1024.11
2019-04-16T01:53:21.004Z,1024.14
2019-04-16T01:54:31.059Z,1024.12
2019-04-16T01:55:42.389Z,1024.12
2019-04-16T01:56:51.712Z,1024.1
2019-04-16T01:58:04.891Z,1024.14
2019-04-16T01:59:13.766Z,1024.08
2019-04-16T02:00:22.901Z,1024.08
2019-04-16T02:01:32.359Z,1024.1
2019-04-16T02:02:46.264Z,1024.08
2019-04-16T02:03:55.740Z,1024.09
2019-04-16T02:05:04.618Z,1024.1
2019-04-16T02:06:13.761Z,1024.08
2019-04-16T02:07:27.898Z,1024.08
2019-04-16T02:08:36.898Z,1024.09
2019-04-16T02:09:45.782Z,1024.08
2019-04-16T02:10:54.917Z,1024.06
2019-04-16T02:12:04.136Z,1024.12
2019-04-16T02:13:18.092Z,1024.1
2019-04-16T02:14:27.228Z,1024.05
2019-04-16T02:15:36.377Z,1024.05
2019-04-16T02:16:45.252Z,1024.02
2019-04-16T02:17:58.711Z,1024.02
2019-04-16T02:19:08.469Z,1024.03
2019-04-16T02:20:17.340Z,1024.05
2019-04-16T02:21:26.495Z,1024.05
2019-04-16T02:22:35.378Z,1024.08
2019-04-16T02:23:49.515Z,1024.13
2019-04-16T02:24:58.663Z,1024.07
2019-04-16T02:26:07.805Z,1024.08
2019-04-16T02:27:16.679Z,1024.1
2019-04-16T02:28:30.791Z,1024.06
2019-04-16T02:29:39.669Z,1024.08
2019-04-16T02:30:48.886Z,1024.08
2019-04-16T02:31:58.569Z,1024.08
2019-04-16T02:33:09.425Z,1024.1
2019-04-16T02:34:18.608Z,1024.13
2019-04-16T02:35:28.207Z,1024.13
2019-04-16T02:36:37.914Z,1024.09
2019-04-16T02:37:46.818Z,1024.03
2019-04-16T02:38:56.228Z,1024.08
2019-04-16T02:40:05.128Z,1024.07
2019-04-16T02:41:24.416Z,1024.03
2019-04-16T02:42:33.826Z,1024.08
2019-04-16T02:43:42.724Z,1024.06
2019-04-16T02:44:51.891Z,1024.08
2019-04-16T02:46:01.049Z,1024.09
2019-04-16T02:47:09.951Z,1024.11
2019-04-16T02:48:19.462Z,1024.07
2019-04-16T02:49:28.610Z,1024.05
2019-04-16T02:50:38.302Z,1024
2019-04-16T02:51:47.490Z,1024.03
2019-04-16T02:52:56.913Z,1023.99
2019-04-16T02:54:05.857Z,1024.02
2019-04-16T02:55:15.285Z,1024.01
2019-04-16T02:56:24.715Z,1024
2019-04-16T02:57:33.923Z,1023.98
2019-04-16T02:58:42.802Z,1023.96
2019-04-16T02:59:51.701Z,1023.99
2019-04-16T03:01:00.847Z,1024
2019-04-16T03:02:09.726Z,1024
2019-04-16T03:03:24.846Z,1023.9
2019-04-16T03:04:35.271Z,1024.01
2019-04-16T03:05:44.471Z,1023.95
2019-04-16T03:06:53.374Z,1023.95
2019-04-16T03:08:07.488Z,1023.93
2019-04-16T03:09:16.766Z,1023.92
2019-04-16T03:10:26.179Z,1023.92
2019-04-16T03:11:35.649Z,1023.89
2019-04-16T03:12:51.787Z,1023.88
2019-04-16T03:14:01.125Z,1023.91
2019-04-16T03:15:10.463Z,1023.91
2019-04-16T03:16:19.367Z,1023.83
2019-04-16T03:17:28.564Z,1023.83
2019-04-16T03:18:46.743Z,1023.83
2019-04-16T03:19:56.694Z,1023.85
2019-04-16T03:21:06.012Z,1023.86
2019-04-16T03:22:15.102Z,1023.84
2019-04-16T03:23:24.001Z,1023.8
2019-04-16T03:24:37.450Z,1023.81
2019-04-16T03:25:47.921Z,1023.78
2019-04-16T03:26:56.805Z,1023.81
2019-04-16T03:28:09.351Z,1023.75
2019-04-16T03:29:18.813Z,1023.74
2019-04-16T03:30:40.012Z,1023.71
2019-04-16T03:31:57.260Z,1023.65
2019-04-16T03:33:14.750Z,1023.7
2019-04-16T03:34:24.149Z,1023.68
2019-04-16T03:35:33.028Z,1023.72
2019-04-16T03:36:42.169Z,1023.72
2019-04-16T03:37:51.314Z,1023.73
2019-04-16T03:39:04.812Z,1023.68
2019-04-16T03:40:24.593Z,1023.65
2019-04-16T03:41:34.647Z,1023.66
2019-04-16T03:42:43.526Z,1023.67
2019-04-16T03:43:52.688Z,1023.69
2019-04-16T03:45:08.897Z,1023.66
2019-04-16T03:46:18.829Z,1023.67
2019-04-16T03:47:27.979Z,1023.6
2019-04-16T03:48:37.122Z,1023.67
2019-04-16T03:49:46.281Z,1023.59
2019-04-16T03:51:00.418Z,1023.61
2019-04-16T03:52:12.359Z,1023.59
2019-04-16T03:53:21.505Z,1023.57
2019-04-16T03:54:30.388Z,1023.56
2019-04-16T03:55:39.263Z,1023.6
2019-04-16T03:56:48.422Z,1023.55
2019-04-16T03:58:05.044Z,1023.5
2019-04-16T03:59:14.654Z,1023.52
2019-04-16T04:00:23.642Z,1023.5
2019-04-16T04:01:32.861Z,1023.52
2019-04-16T04:02:46.211Z,1023.48
2019-04-16T04:04:01.026Z,1023.45
2019-04-16T04:05:10.188Z,1023.5
2019-04-16T04:06:19.065Z,1023.45
2019-04-16T04:07:27.937Z,1023.44
2019-04-16T04:08:37.212Z,1023.4
2019-04-16T04:09:54.448Z,1023.46
2019-04-16T04:11:08.831Z,1023.43
2019-04-16T04:12:19.420Z,1023.43
2019-04-16T04:13:30.565Z,1023.47
2019-04-16T04:14:39.505Z,1023.46
2019-04-16T04:15:48.657Z,1023.43
2019-04-16T04:17:06.537Z,1023.44
2019-04-16T04:18:16.663Z,1023.42
2019-04-16T04:19:25.860Z,1023.45
2019-04-16T04:20:35.282Z,1023.44
2019-04-16T04:21:44.162Z,1023.38
2019-04-16T04:22:57.813Z,1023.42
2019-04-16T04:24:07.019Z,1023.42
2019-04-16T04:25:16.170Z,1023.42
2019-04-16T04:26:25.369Z,1023.45
2019-04-16T04:27:34.273Z,1023.46
2019-04-16T04:28:51.496Z,1023.47
2019-04-16T04:30:01.419Z,1023.4
2019-04-16T04:31:10.574Z,1023.42
2019-04-16T04:32:19.800Z,1023.39
2019-04-16T04:33:28.965Z,1023.42
2019-04-16T04:34:45.374Z,1023.38
2019-04-16T04:35:57.841Z,1023.41
2019-04-16T04:37:06.809Z,1023.39
2019-04-16T04:38:15.708Z,1023.38
2019-04-16T04:39:25.128Z,1023.37
2019-04-16T04:40:44.083Z,1023.36
2019-04-16T04:42:00.082Z,1023.34
2019-04-16T04:43:09.251Z,1023.36
2019-04-16T04:44:18.529Z,1023.36
2019-04-16T04:45:27.417Z,1023.36
2019-04-16T04:46:43.161Z,1023.35
2019-04-16T04:47:55.554Z,1023.32
2019-04-16T04:49:04.448Z,1023.28
2019-04-16T04:50:14.360Z,1023.29
2019-04-16T04:51:23.295Z,1023.32
2019-04-16T04:52:32.437Z,1023.28
2019-04-16T04:53:47.444Z,1023.28
2019-04-16T04:54:58.797Z,1023.29
2019-04-16T04:56:07.939Z,1023.31
2019-04-16T04:57:20.024Z,1023.27
2019-04-16T04:58:34.014Z,1023.26
2019-04-16T04:59:43.604Z,1023.3
2019-04-16T05:00:52.740Z,1023.31
2019-04-16T05:02:01.617Z,1023.32
2019-04-16T05:03:16.829Z,1023.3
2019-04-16T05:04:26.261Z,1023.31
2019-04-16T05:05:35.133Z,1023.33
2019-04-16T05:06:44.296Z,1023.31
2019-04-16T05:07:59.624Z,1023.34
2019-04-16T05:09:08.768Z,1023.35
2019-04-16T05:10:18.171Z,1023.31
2019-04-16T05:11:27.111Z,1023.4
2019-04-16T05:12:35.993Z,1023.38
2019-04-16T05:13:44.869Z,1023.35
2019-04-16T05:14:58.962Z,1023.43
2019-04-16T05:16:10.657Z,1023.4
2019-04-16T05:17:19.579Z,1023.39
2019-04-16T05:18:29.263Z,1023.41
2019-04-16T05:19:44.536Z,1023.41
2019-04-16T05:20:53.475Z,1023.39
2019-04-16T05:22:02.623Z,1023.43
2019-04-16T05:23:11.910Z,1023.37
2019-04-16T05:24:28.821Z,1023.37
2019-04-16T05:25:40.106Z,1023.33
2019-04-16T05:26:48.981Z,1023.35
2019-04-16T05:28:00.870Z,1023.38
2019-04-16T05:29:16.962Z,1023.35
2019-04-16T05:30:26.999Z,1023.38
2019-04-16T05:31:36.157Z,1023.36
2019-04-16T05:32:45.310Z,1023.39
2019-04-16T05:33:54.270Z,1023.4
2019-04-16T05:35:11.238Z,1023.4
2019-04-16T05:36:21.249Z,1023.39
2019-04-16T05:37:30.575Z,1023.39
2019-04-16T05:38:39.732Z,1023.39
2019-04-16T05:39:48.890Z,1023.48
2019-04-16T05:41:12.403Z,1023.47
2019-04-16T05:42:28.639Z,1023.46
2019-04-16T05:43:37.777Z,1023.48
2019-04-16T05:44:46.644Z,1023.48
2019-04-16T05:45:55.567Z,1023.5
2019-04-16T05:47:08.717Z,1023.53
2019-04-16T05:48:22.736Z,1023.52
2019-04-16T05:49:31.952Z,1023.53
2019-04-16T05:50:40.824Z,1023.53
2019-04-16T05:51:50.241Z,1023.52
2019-04-16T05:53:05.344Z,1023.53
2019-04-16T05:54:20.537Z,1023.56
2019-04-16T05:55:29.680Z,1023.52
2019-04-16T05:56:38.876Z,1023.53
2019-04-16T05:57:48.011Z,1023.56
2019-04-16T05:59:02.552Z,1023.55
2019-04-16T06:00:12.635Z,1023.55
2019-04-16T06:01:21.689Z,1023.54
2019-04-16T06:02:31.533Z,1023.55
2019-04-16T06:03:40.684Z,1023.53
2019-04-16T06:04:55.816Z,1023.57
2019-04-16T06:06:05.336Z,1023.57
2019-04-16T06:07:14.754Z,1023.58
2019-04-16T06:08:24.218Z,1023.6
2019-04-16T06:09:33.370Z,1023.58
2019-04-16T06:10:49.656Z,1023.55
2019-04-16T06:12:01.972Z,1023.59
2019-04-16T06:13:15.079Z,1023.54
2019-04-16T06:14:25.779Z,1023.58
2019-04-16T06:15:35.883Z,1023.57
2019-04-16T06:16:45.391Z,1023.51
2019-04-16T06:17:58.930Z,1023.53
2019-04-16T06:19:12.210Z,1023.56
2019-04-16T06:20:21.717Z,1023.55
2019-04-16T06:21:31.148Z,1023.51
2019-04-16T06:22:40.288Z,1023.58
2019-04-16T06:23:49.456Z,1023.58
2019-04-16T06:25:08.146Z,1023.6
2019-04-16T06:26:18.571Z,1023.54
2019-04-16T06:27:27.446Z,1023.5
2019-04-16T06:28:36.590Z,1023.57
2019-04-16T06:29:46.999Z,1023.55
2019-04-16T06:31:04.930Z,1023.54
2019-04-16T06:32:17.386Z,1023.57
2019-04-16T06:33:28.614Z,1023.5
2019-04-16T06:34:37.487Z,1023.49
2019-04-16T06:35:46.357Z,1023.5
2019-04-16T06:36:55.550Z,1023.51
2019-04-16T06:38:04.431Z,1023.54
2019-04-16T06:39:13.316Z,1023.55
2019-04-16T06:40:22.475Z,1023.55
2019-04-16T06:41:41.760Z,1023.56
2019-04-16T06:42:57.299Z,1023.55
2019-04-16T06:44:09.755Z,1023.53
2019-04-16T06:45:19.750Z,1023.53
2019-04-16T06:46:28.898Z,1023.5
2019-04-16T06:47:42.815Z,1023.51
2019-04-16T06:48:52.310Z,1023.48
2019-04-16T06:50:01.185Z,1023.45
2019-04-16T06:51:12.402Z,1023.43
2019-04-16T06:52:21.532Z,1023.4
2019-04-16T06:53:31.036Z,1023.41
2019-04-16T06:54:39.908Z,1023.43
2019-04-16T06:55:52.124Z,1023.44
2019-04-16T06:57:01.272Z,1023.37
2019-04-16T06:58:16.190Z,1023.39
2019-04-16T06:59:30.853Z,1023.39
2019-04-16T07:00:40.891Z,1023.4
2019-04-16T07:01:50.397Z,1023.41
2019-04-16T07:03:02.372Z,1023.44
2019-04-16T07:04:11.499Z,1023.46
2019-04-16T07:05:20.412Z,1023.4
2019-04-16T07:06:36.259Z,1023.43
2019-04-16T07:07:48.767Z,1023.42
2019-04-16T07:08:57.649Z,1023.43
2019-04-16T07:10:06.797Z,1023.41
2019-04-16T07:11:16.656Z,1023.39
2019-04-16T07:12:25.790Z,1023.38
2019-04-16T07:13:42.153Z,1023.37
2019-04-16T07:14:52.002Z,1023.4
2019-04-16T07:16:01.149Z,1023.39
2019-04-16T07:17:10.093Z,1023.39
2019-04-16T07:18:23.149Z,1023.4
2019-04-16T07:19:32.317Z,1023.38
2019-04-16T07:20:46.743Z,1023.38
2019-04-16T07:21:56.150Z,1023.37
2019-04-16T07:23:05.350Z,1023.34
2019-04-16T07:24:14.812Z,1023.34
2019-04-16T07:25:41.220Z,1023.34
2019-04-16T07:26:55.979Z,1023.37
2019-04-16T07:28:06.591Z,1023.34
2019-04-16T07:29:16.008Z,1023.33
2019-04-16T07:30:25.316Z,1023.33
2019-04-16T07:31:39.432Z,1023.3
2019-04-16T07:32:52.927Z,1023.29
2019-04-16T07:34:05.467Z,1023.33
2019-04-16T07:35:14.902Z,1023.3
2019-04-16T07:36:28.000Z,1023.31
2019-04-16T07:37:37.215Z,1023.34
2019-04-16T07:38:46.632Z,1023.3
2019-04-16T07:39:55.828Z,1023.33
2019-04-16T07:41:11.822Z,1023.29
2019-04-16T07:42:26.281Z,1023.32
2019-04-16T07:43:35.618Z,1023.26
2019-04-16T07:44:44.503Z,1023.25
2019-04-16T07:45:55.637Z,1023.29
2019-04-16T07:47:04.513Z,1023.25
2019-04-16T07:48:13.918Z,1023.27
2019-04-16T07:49:27.472Z,1023.28
2019-04-16T07:50:37.166Z,1023.28
2019-04-16T07:51:46.641Z,1023.25
2019-04-16T07:52:55.784Z,1023.25
2019-04-16T07:54:04.925Z,1023.27
2019-04-16T07:55:14.074Z,1023.23
2019-04-16T07:56:27.494Z,1023.22
2019-04-16T07:57:36.375Z,1023.22
2019-04-16T07:58:45.801Z,1023.22
2019-04-16T08:00:00.683Z,1023.21
2019-04-16T08:01:16.430Z,1023.21
2019-04-16T08:02:25.412Z,1023.18
2019-04-16T08:03:34.337Z,1023.12
2019-04-16T08:04:43.213Z,1023.16
2019-04-16T08:05:52.624Z,1023.15
2019-04-16T08:07:02.411Z,1023.14
2019-04-16T08:08:11.289Z,1023.16
2019-04-16T08:09:28.621Z,1023.08
2019-04-16T08:10:40.470Z,1023.14
2019-04-16T08:11:49.354Z,1023.09
2019-04-16T08:13:00.444Z,1023.1
2019-04-16T08:14:10.348Z,1023.14
2019-04-16T08:15:21.801Z,1023.09
2019-04-16T08:16:30.701Z,1023.11
2019-04-16T08:17:53.709Z,1023.08
2019-04-16T08:19:02.586Z,1023.09
2019-04-16T08:20:19.695Z,1023.14
2019-04-16T08:21:29.379Z,1023.13
2019-04-16T08:22:47.156Z,1023.1
2019-04-16T08:23:56.317Z,1023.07
2019-04-16T08:25:05.417Z,1023.06
2019-04-16T08:26:15.013Z,1023.08
2019-04-16T08:27:24.271Z,1023.06
2019-04-16T08:28:33.492Z,1023.05
2019-04-16T08:29:42.375Z,1023.04
2019-04-16T08:30:51.603Z,1023.04
2019-04-16T08:32:00.760Z,1023.05
2019-04-16T08:33:10.953Z,1023.03
2019-04-16T08:34:20.352Z,1023.02
2019-04-16T08:35:29.251Z,1023.06
2019-04-16T08:36:38.667Z,1023.06
2019-04-16T08:37:49.410Z,1023.02
2019-04-16T08:39:05.793Z,1023
2019-04-16T08:40:15.118Z,1023.04
2019-04-16T08:41:24.548Z,1023.01
2019-04-16T08:42:43.823Z,1023.01
2019-04-16T08:43:59.643Z,1023.02
2019-04-16T08:45:14.881Z,1023.03
2019-04-16T08:46:28.247Z,1023.03
2019-04-16T08:47:44.284Z,1022.96
2019-04-16T08:48:54.459Z,1022.99
2019-04-16T08:50:03.769Z,1022.97
2019-04-16T08:51:29.547Z,1022.96
2019-04-16T08:52:43.870Z,1022.95
2019-04-16T08:53:52.751Z,1022.99
2019-04-16T08:55:02.185Z,1022.98
2019-04-16T08:56:12.114Z,1022.92
2019-04-16T08:57:21.186Z,1022.93
2019-04-16T08:58:35.593Z,1022.93
2019-04-16T08:59:47.049Z,1022.93
2019-04-16T09:00:56.434Z,1022.9
2019-04-16T09:02:05.859Z,1022.9
2019-04-16T09:03:15.424Z,1022.92
2019-04-16T09:04:33.959Z,1022.91
2019-04-16T09:05:43.515Z,1022.91
2019-04-16T09:06:52.928Z,1022.92
2019-04-16T09:08:22.034Z,1022.91
2019-04-16T09:09:31.813Z,1022.91
2019-04-16T09:10:40.962Z,1022.89
2019-04-16T09:11:52.076Z,1022.9
2019-04-16T09:13:03.649Z,1022.88
2019-04-16T09:14:16.710Z,1022.84
2019-04-16T09:15:32.589Z,1022.82
2019-04-16T09:16:43.554Z,1022.83
2019-04-16T09:17:52.769Z,1022.84
2019-04-16T09:19:01.649Z,1022.84
2019-04-16T09:20:10.870Z,1022.84
2019-04-16T09:21:23.533Z,1022.81
2019-04-16T09:22:48.033Z,1022.83
2019-04-16T09:24:08.449Z,1022.82
2019-04-16T09:25:18.308Z,1022.81
2019-04-16T09:26:27.726Z,1022.76
2019-04-16T09:27:36.884Z,1022.82
2019-04-16T09:28:46.040Z,1022.79
2019-04-16T09:29:55.304Z,1022.85
2019-04-16T09:31:04.512Z,1022.83
2019-04-16T09:32:13.392Z,1022.8
2019-04-16T09:33:30.311Z,1022.78
2019-04-16T09:34:42.342Z,1022.83
2019-04-16T09:35:51.264Z,1022.84
2019-04-16T09:37:00.607Z,1022.76
2019-04-16T09:38:12.959Z,1022.79
2019-04-16T09:39:22.869Z,1022.72
2019-04-16T09:40:32.036Z,1022.75
2019-04-16T09:41:40.909Z,1022.76
2019-04-16T09:42:50.115Z,1022.8
2019-04-16T09:43:59.300Z,1022.72
2019-04-16T09:45:08.735Z,1022.71
2019-04-16T09:46:23.307Z,1022.7
2019-04-16T09:48:05.408Z,1022.76
2019-04-16T09:49:14.835Z,1022.71
2019-04-16T09:50:24.251Z,1022.78
2019-04-16T09:51:33.141Z,1022.71
2019-04-16T09:52:42.039Z,1022.74
2019-04-16T09:53:55.304Z,1022.7
2019-04-16T09:55:04.186Z,1022.65
2019-04-16T09:56:19.649Z,1022.69
2019-04-16T09:57:36.140Z,1022.65
2019-04-16T09:58:45.285Z,1022.63
2019-04-16T09:59:54.216Z,1022.64
2019-04-16T10:01:03.371Z,1022.7
2019-04-16T10:02:12.258Z,1022.7
2019-04-16T10:03:21.558Z,1022.69
2019-04-16T10:04:33.080Z,1022.65
2019-04-16T10:05:42.281Z,1022.64
2019-04-16T10:06:51.983Z,1022.67
2019-04-16T10:08:01.436Z,1022.67
2019-04-16T10:09:19.710Z,1022.57
2019-04-16T10:10:29.850Z,1022.59
2019-04-16T10:11:38.805Z,1022.59
2019-04-16T10:12:48.065Z,1022.57
2019-04-16T10:13:56.967Z,1022.53
2019-04-16T10:15:05.917Z,1022.57
2019-04-16T10:16:15.180Z,1022.52
2019-04-16T10:17:24.441Z,1022.48
2019-04-16T10:18:35.051Z,1022.54
2019-04-16T10:19:45.280Z,1022.48
2019-04-16T10:20:54.760Z,1022.48
2019-04-16T10:22:03.716Z,1022.47
2019-04-16T10:23:12.722Z,1022.47
2019-04-16T10:24:22.015Z,1022.43
2019-04-16T10:25:33.543Z,1022.51
2019-04-16T10:26:43.361Z,1022.4
2019-04-16T10:27:53.166Z,1022.43
2019-04-16T10:29:06.157Z,1022.46
2019-04-16T10:30:15.655Z,1022.4
2019-04-16T10:31:24.549Z,1022.38
2019-04-16T10:32:34.260Z,1022.43
2019-04-16T10:33:43.287Z,1022.45
2019-04-16T10:34:52.498Z,1022.45
2019-04-16T10:36:04.539Z,1022.36
2019-04-16T10:37:15.292Z,1022.3
2019-04-16T10:38:24.617Z,1022.31
2019-04-16T10:39:33.549Z,1022.38
2019-04-16T10:40:42.538Z,1022.31
2019-04-16T10:41:51.984Z,1022.25
2019-04-16T10:43:03.223Z,1022.27
2019-04-16T10:44:13.034Z,1022.27
2019-04-16T10:45:22.443Z,1022.27
2019-04-16T10:46:31.965Z,1022.29
2019-04-16T10:47:40.893Z,1022.24
2019-04-16T10:48:50.478Z,1022.3
2019-04-16T10:49:59.648Z,1022.2
2019-04-16T10:51:08.868Z,1022.24
2019-04-16T10:52:22.466Z,1022.19
2019-04-16T10:53:31.449Z,1022.2
2019-04-16T10:54:40.664Z,1022.18
2019-04-16T10:55:50.468Z,1022.14
2019-04-16T10:56:59.908Z,1022.09
2019-04-16T10:58:12.657Z,1022.11
2019-04-16T10:59:21.663Z,1022.08
2019-04-16T11:00:30.852Z,1022.13
2019-04-16T11:01:39.802Z,1022.04
2019-04-16T11:02:49.277Z,1022.07
2019-04-16T11:03:58.212Z,1022.11
2019-04-16T11:05:11.980Z,1022.11
2019-04-16T11:06:25.574Z,1022.08
2019-04-16T11:07:34.876Z,1022.02
2019-04-16T11:08:44.734Z,1022.06
2019-04-16T11:09:53.892Z,1022.01
2019-04-16T11:11:02.807Z,1022.02
2019-04-16T11:12:11.731Z,1022
2019-04-16T11:13:22.351Z,1022.01
2019-04-16T11:14:31.868Z,1021.98
2019-04-16T11:15:41.432Z,1021.94
2019-04-16T11:16:50.386Z,1021.95
2019-04-16T11:17:59.691Z,1021.96
2019-04-16T11:19:08.863Z,1021.98
2019-04-16T11:20:17.919Z,1021.92
2019-04-16T11:21:26.907Z,1021.9
2019-04-16T11:22:36.367Z,1021.92
2019-04-16T11:23:45.671Z,1021.9
2019-04-16T11:24:54.635Z,1021.95
2019-04-16T11:26:04.138Z,1021.92
2019-04-16T11:27:13.751Z,1021.89
2019-04-16T11:28:22.938Z,1021.83
2019-04-16T11:29:31.858Z,1021.8
2019-04-16T11:30:48.445Z,1021.8
2019-04-16T11:31:57.857Z,1021.83
2019-04-16T11:33:07.882Z,1021.83
2019-04-16T11:34:16.952Z,1021.83
2019-04-16T11:35:26.416Z,1021.82
2019-04-16T11:36:35.664Z,1021.8
2019-04-16T11:37:45.170Z,1021.77
2019-04-16T11:38:54.423Z,1021.81
2019-04-16T11:40:04.547Z,1021.68
2019-04-16T11:41:14.069Z,1021.69
2019-04-16T11:42:23.551Z,1021.72
2019-04-16T11:43:32.784Z,1021.67
2019-04-16T11:44:41.713Z,1021.63
2019-04-16T11:45:52.830Z,1021.69
2019-04-16T11:47:02.375Z,1021.62
2019-04-16T11:48:11.907Z,1021.62
2019-04-16T11:49:21.291Z,1021.67
2019-04-16T11:50:30.701Z,1021.66
2019-04-16T11:51:43.178Z,1021.67
2019-04-16T11:52:57.076Z,1021.63
2019-04-16T11:54:06.726Z,1021.6
2019-04-16T11:55:19.343Z,1021.63
2019-04-16T11:56:28.341Z,1021.57
2019-04-16T11:57:37.610Z,1021.65
2019-04-16T11:58:46.894Z,1021.65
2019-04-16T12:00:06.920Z,1021.64
2019-04-16T12:01:17.486Z,1021.68
2019-04-16T12:02:30.338Z,1021.69
2019-04-16T12:03:43.600Z,1021.74
2019-04-16T12:04:59.170Z,1021.67
2019-04-16T12:06:08.423Z,1021.69
2019-04-16T12:07:32.422Z,1021.65
2019-04-16T12:08:41.641Z,1021.59
2019-04-16T12:09:51.090Z,1021.61
2019-04-16T12:11:00.357Z,1021.69
2019-04-16T12:12:09.575Z,1021.68
2019-04-16T12:13:18.548Z,1021.67
2019-04-16T12:14:30.938Z,1021.71
2019-04-16T12:15:49.338Z,1021.66
2019-04-16T12:16:58.320Z,1021.62
2019-04-16T12:18:07.354Z,1021.63
2019-04-16T12:19:16.833Z,1021.61
2019-04-16T12:20:26.162Z,1021.61
2019-04-16T12:21:35.337Z,1021.58
2019-04-16T12:22:44.260Z,1021.61
2019-04-16T12:23:53.542Z,1021.67
2019-04-16T12:25:02.841Z,1021.67
2019-04-16T12:26:12.581Z,1021.65
2019-04-16T12:27:21.642Z,1021.68
2019-04-16T12:28:30.877Z,1021.65
2019-04-16T12:29:44.874Z,1021.65
2019-04-16T12:30:53.867Z,1021.64
2019-04-16T12:32:03.917Z,1021.59
2019-04-16T12:33:14.636Z,1021.58
2019-04-16T12:34:23.864Z,1021.6
2019-04-16T12:35:34.602Z,1021.66
2019-04-16T12:36:48.493Z,1021.61
2019-04-16T12:37:57.753Z,1021.68
2019-04-16T12:39:12.742Z,1021.6
2019-04-16T12:40:26.064Z,1021.61
2019-04-16T12:41:35.614Z,1021.61
2019-04-16T12:42:44.829Z,1021.65
2019-04-16T12:43:54.410Z,1021.57
2019-04-16T12:45:03.718Z,1021.66
2019-04-16T12:46:16.198Z,1021.64
2019-04-16T12:47:25.233Z,1021.72
2019-04-16T12:48:34.518Z,1021.64
2019-04-16T12:49:43.512Z,1021.6
2019-04-16T12:50:52.743Z,1021.66
2019-04-16T12:52:02.086Z,1021.63
2019-04-16T12:53:16.458Z,1021.61
2019-04-16T12:54:26.228Z,1021.57
2019-04-16T12:55:38.091Z,1021.61
2019-04-16T12:56:47.901Z,1021.6
2019-04-16T12:57:58.823Z,1021.6
2019-04-16T12:59:08.464Z,1021.57
2019-04-16T13:00:26.049Z,1021.61
2019-04-16T13:01:38.664Z,1021.57
2019-04-16T13:02:47.545Z,1021.55
2019-04-16T13:03:56.694Z,1021.58
2019-04-16T13:05:06.435Z,1021.54
2019-04-16T13:06:15.676Z,1021.56
2019-04-16T13:07:28.654Z,1021.53
2019-04-16T13:08:41.582Z,1021.52
2019-04-16T13:09:53.583Z,1021.51
2019-04-16T13:11:03.066Z,1021.57
2019-04-16T13:12:15.675Z,1021.57
2019-04-16T13:13:24.561Z,1021.51
2019-04-16T13:14:33.434Z,1021.49
2019-04-16T13:16:00.074Z,1021.46
2019-04-16T13:17:09.500Z,1021.46
2019-04-16T13:18:23.165Z,1021.51
2019-04-16T13:19:32.308Z,1021.51
2019-04-16T13:20:41.454Z,1021.54
2019-04-16T13:21:50.609Z,1021.52
2019-04-16T13:23:02.620Z,1021.49
2019-04-16T13:24:11.904Z,1021.44
2019-04-16T13:25:21.049Z,1021.41
2019-04-16T13:26:30.197Z,1021.45
2019-04-16T13:27:39.075Z,1021.46
2019-04-16T13:28:55.088Z,1021.49
2019-04-16T13:30:04.517Z,1021.39
2019-04-16T13:31:13.668Z,1021.38
2019-04-16T13:32:22.816Z,1021.44
2019-04-16T13:33:34.862Z,1021.35
2019-04-16T13:34:47.003Z,1021.36
2019-04-16T13:35:58.314Z,1021.37
2019-04-16T13:37:07.463Z,1021.33
2019-04-16T13:38:16.608Z,1021.34
2019-04-16T13:39:26.029Z,1021.29
2019-04-16T13:40:34.957Z,1021.37
2019-04-16T13:41:46.513Z,1021.34
2019-04-16T13:42:55.930Z,1021.29
2019-04-16T13:44:10.015Z,1021.3
2019-04-16T13:45:26.909Z,1021.32
2019-04-16T13:46:36.385Z,1021.37
2019-04-16T13:47:45.534Z,1021.36
2019-04-16T13:49:15.648Z,1021.33
2019-04-16T13:50:35.266Z,1021.29
2019-04-16T13:51:48.396Z,1021.27
2019-04-16T13:52:59.872Z,1021.32
2019-04-16T13:54:09.037Z,1021.22
2019-04-16T13:55:18.724Z,1021.18
2019-04-16T13:56:27.656Z,1021.19
2019-04-16T13:57:36.554Z,1021.25
2019-04-16T13:58:45.426Z,1021.26
2019-04-16T13:59:56.386Z,1021.25
2019-04-16T14:01:10.933Z,1021.16
2019-04-16T14:02:20.108Z,1021.16
2019-04-16T14:03:29.536Z,1021.09
2019-04-16T14:04:38.683Z,1021.09
2019-04-16T14:05:48.094Z,1021.07
2019-04-16T14:06:57.521Z,1021.11
2019-04-16T14:08:07.152Z,1021.16
2019-04-16T14:09:16.034Z,1021.12
2019-04-16T14:10:24.921Z,1021.15
2019-04-16T14:11:34.083Z,1021.09
2019-04-16T14:12:43.512Z,1021.08
2019-04-16T14:13:52.664Z,1021.03
2019-04-16T14:15:05.597Z,1021.02
2019-04-16T14:16:14.976Z,1021.11
2019-04-16T14:17:23.864Z,1021.06
2019-04-16T14:18:40.136Z,1021.05
2019-04-16T14:19:49.547Z,1021.07
2019-04-16T14:20:58.996Z,1021.07